Time;durP1;ratioP1;P1;durP2;ratioP2;P2;SDS_P1;SDS_P2;PMS_P1;PMS_P2;Temp;Humidity;BMP_temperature;BMP_pressure;BME280_temperature;BME280_humidity;BME280_pressure;Samples;Min_cycle;Max_cycle;Signal;HPM_P1;HPM_P2
2022/11/06 00:00:20;;;;;;;2.20;2.20;;;18.40;71.10;;;;;;5024552;28;44670;-73
2022/11/06 00:02:48;;;;;;;1.90;1.90;;;18.40;71.20;;;;;;5042092;28;43983;-73
2022/11/06 00:08:03;;;;;;;1.90;1.90;;;18.50;70.90;;;;;;5036842;28;43949;-72
2022/11/06 00:10:31;;;;;;;2.10;2.00;;;18.60;70.50;;;;;;5043419;28;43495;-72
2022/11/06 00:12:59;;;;;;;2.00;2.00;;;18.70;70.00;;;;;;5045107;28;43486;-73
2022/11/06 00:15:28;;;;;;;1.90;1.90;;;18.70;69.70;;;;;;5045257;28;43517;-73
2022/11/06 00:17:55;;;;;;;2.13;2.03;;;18.70;69.90;;;;;;5039824;28;43913;-71
2022/11/06 00:20:23;;;;;;;1.90;1.90;;;18.70;70.20;;;;;;5041628;28;43435;-73
2022/11/06 00:22:51;;;;;;;2.00;2.00;;;18.60;70.30;;;;;;5042146;28;43485;-73
2022/11/06 00:25:21;;;;;;;2.13;2.07;;;18.60;70.50;;;;;;5041738;28;43534;-72
2022/11/06 00:27:49;;;;;;;2.20;2.20;;;18.50;70.60;;;;;;5025392;28;45675;-72
2022/11/06 00:30:19;;;;;;;1.90;1.90;;;18.50;70.60;;;;;;5045624;28;43831;-73
2022/11/06 00:32:47;;;;;;;2.10;2.10;;;18.50;70.70;;;;;;5042813;28;43547;-73
2022/11/06 00:35:15;;;;;;;2.33;2.23;;;18.50;70.80;;;;;;5023636;28;43488;-72
2022/11/06 00:37:43;;;;;;;2.23;2.23;;;18.40;70.90;;;;;;5041868;28;43899;-72
2022/11/06 00:40:12;;;;;;;1.97;1.97;;;18.40;70.90;;;;;;5040477;28;43602;-73
2022/11/06 00:42:42;;;;;;;1.63;1.63;;;18.40;71.10;;;;;;5043418;28;43527;-73
2022/11/06 00:45:10;;;;;;;2.03;2.03;;;18.40;70.90;;;;;;5043268;28;44045;-74
2022/11/06 00:47:38;;;;;;;1.70;1.70;;;18.40;71.00;;;;;;5040633;28;45017;-71
2022/11/06 00:50:07;;;;;;;2.07;1.90;;;18.40;71.10;;;;;;5042341;28;43424;-73
2022/11/06 00:52:35;;;;;;;1.63;1.60;;;18.40;71.10;;;;;;5025516;28;43520;-73
2022/11/06 00:55:03;;;;;;;1.90;1.90;;;18.40;71.20;;;;;;5043709;28;43782;-72
2022/11/06 00:57:31;;;;;;;1.87;1.83;;;18.40;71.20;;;;;;5042349;28;43912;-72
2022/11/06 01:00:00;;;;;;;2.00;2.00;;;18.40;70.90;;;;;;5042344;28;43483;-72
2022/11/06 01:02:28;;;;;;;1.83;1.83;;;18.50;70.70;;;;;;5044023;28;43995;-74
2022/11/06 01:04:56;;;;;;;2.30;2.20;;;18.50;70.20;;;;;;5044413;28;43566;-73
2022/11/06 01:07:24;;;;;;;2.00;2.00;;;18.60;70.10;;;;;;5041371;28;43875;-72
2022/11/06 01:09:52;;;;;;;2.20;2.10;;;18.60;70.40;;;;;;5022725;28;43665;-73
2022/11/06 01:12:20;;;;;;;1.97;1.97;;;18.50;70.30;;;;;;5025808;28;43443;-72
2022/11/06 01:14:48;;;;;;;1.80;1.80;;;18.50;70.10;;;;;;5028487;28;43573;-72
2022/11/06 01:17:17;;;;;;;1.80;1.80;;;18.50;70.20;;;;;;5046030;28;43925;-73
2022/11/06 01:19:45;;;;;;;1.67;1.67;;;18.50;70.50;;;;;;5041413;28;43472;-72
2022/11/06 01:22:13;;;;;;;1.60;1.60;;;18.50;70.60;;;;;;5046374;28;43440;-73
2022/11/06 01:24:41;;;;;;;2.10;2.10;;;18.50;70.70;;;;;;5046701;28;43439;-72
2022/11/06 01:27:10;;;;;;;1.80;1.80;;;18.40;70.70;;;;;;5045775;28;43608;-72
2022/11/06 01:29:54;;;;;;;2.13;2.10;;;18.50;70.60;;;;;;5043991;28;43521;-72
2022/11/06 01:32:24;;;;;;;1.90;1.90;;;18.50;70.20;;;;;;5044658;28;43394;-73
2022/11/06 01:34:52;;;;;;;1.90;1.90;;;18.60;69.90;;;;;;5046167;28;43483;-73
2022/11/06 01:37:20;;;;;;;2.17;1.97;;;18.60;70.10;;;;;;5045945;28;44063;-73
2022/11/06 01:39:49;;;;;;;1.90;1.90;;;18.60;70.30;;;;;;5045813;28;43474;-72
2022/11/06 01:42:17;;;;;;;1.97;1.97;;;18.50;70.00;;;;;;5046102;28;43531;-73
2022/11/06 01:45:26;;;;;;;1.80;1.80;;;18.50;70.10;;;;;;5046501;28;43558;-73
2022/11/06 01:47:56;;;;;;;1.80;1.80;;;18.50;70.40;;;;;;5042906;28;43847;-72
2022/11/06 01:50:24;;;;;;;1.77;1.67;;;18.50;70.50;;;;;;5045789;28;43450;-73
2022/11/06 01:52:52;;;;;;;2.00;1.90;;;18.40;70.60;;;;;;5031121;28;43964;-72
2022/11/06 01:55:23;;;;;;;1.90;1.90;;;18.40;70.60;;;;;;5050021;28;43652;-72
2022/11/06 01:57:51;;;;;;;1.60;1.60;;;18.40;70.60;;;;;;5049087;28;43627;-72
2022/11/06 02:00:20;;;;;;;1.73;1.73;;;18.40;70.70;;;;;;5049663;28;43450;-71
2022/11/06 02:02:48;;;;;;;1.90;1.90;;;18.40;70.70;;;;;;5049286;28;43439;-72
2022/11/06 02:05:18;;;;;;;1.70;1.70;;;18.40;70.80;;;;;;5049545;28;43389;-72
2022/11/06 02:07:46;;;;;;;1.60;1.60;;;18.40;70.90;;;;;;5058401;28;46121;-72
2022/11/06 02:10:14;;;;;;;1.97;1.87;;;18.30;70.80;;;;;;5030573;28;44677;-72
2022/11/06 02:12:50;;;;;;;2.00;1.90;;;18.40;70.60;;;;;;5049336;28;43451;-73
2022/11/06 02:15:23;;;;;;;1.80;1.80;;;18.50;70.20;;;;;;5031462;28;43602;-73
2022/11/06 02:17:57;;;;;;;1.80;1.80;;;18.60;69.80;;;;;;5030375;28;45568;-73
2022/11/06 02:20:30;;;;;;;1.90;1.90;;;18.70;69.40;;;;;;5048169;28;43502;-73
2022/11/06 02:23:15;;;;;;;1.80;1.80;;;18.70;69.50;;;;;;5049228;28;43367;-72
2022/11/06 02:25:48;;;;;;;1.50;1.50;;;18.60;69.70;;;;;;5047850;28;43437;-72
2022/11/06 02:28:21;;;;;;;1.70;1.70;;;18.60;70.00;;;;;;5044910;28;43753;-73
2022/11/06 02:30:49;;;;;;;1.80;1.80;;;18.50;70.10;;;;;;5048634;28;43442;-72
2022/11/06 02:33:18;;;;;;;1.70;1.70;;;18.50;70.30;;;;;;5031880;28;43473;-73
2022/11/06 02:35:48;;;;;;;1.80;1.80;;;18.40;70.20;;;;;;5029945;28;43969;-72
2022/11/06 02:38:18;;;;;;;1.80;1.80;;;18.40;70.40;;;;;;5048155;28;43603;-73
2022/11/06 02:40:48;;;;;;;1.70;1.70;;;18.40;70.50;;;;;;5030313;28;44477;-74
2022/11/06 02:43:15;;;;;;;1.60;1.60;;;18.40;70.60;;;;;;5049483;28;43468;-73
2022/11/06 02:45:47;;;;;;;1.90;1.90;;;18.30;70.60;;;;;;5048778;28;44162;-72
2022/11/06 02:48:15;;;;;;;2.10;2.00;;;18.30;70.60;;;;;;5048713;28;43611;-73
2022/11/06 02:50:45;;;;;;;1.60;1.60;;;18.40;70.40;;;;;;5046942;28;43452;-72
2022/11/06 02:53:14;;;;;;;1.80;1.70;;;18.40;70.00;;;;;;5048972;28;43661;-73
2022/11/06 02:55:43;;;;;;;2.00;1.90;;;18.50;69.80;;;;;;5046518;28;43453;-73
2022/11/06 02:58:14;;;;;;;1.73;1.73;;;18.50;70.00;;;;;;5042991;28;44038;-72
2022/11/06 03:00:47;;;;;;;2.27;2.17;;;18.50;70.20;;;;;;5029262;28;44605;-72
2022/11/06 03:03:17;;;;;;;1.70;1.60;;;18.50;70.00;;;;;;5048655;28;43380;-72
2022/11/06 03:05:47;;;;;;;1.90;1.90;;;18.40;70.00;;;;;;5048639;28;43631;-72
2022/11/06 03:08:17;;;;;;;1.77;1.67;;;18.40;70.20;;;;;;5048207;28;43607;-72
2022/11/06 03:10:46;;;;;;;1.50;1.50;;;18.40;70.30;;;;;;5029925;28;44982;-72
2022/11/06 03:13:16;;;;;;;1.83;1.83;;;18.40;70.50;;;;;;5048240;28;43520;-73
2022/11/06 03:15:48;;;;;;;1.77;1.70;;;18.40;70.50;;;;;;5050452;28;43538;-72
2022/11/06 03:18:17;;;;;;;1.80;1.80;;;18.30;70.40;;;;;;5047971;28;43893;-73
2022/11/06 03:20:49;;;;;;;1.70;1.70;;;18.40;70.10;;;;;;5048288;28;43591;-72
2022/11/06 03:23:20;;;;;;;1.90;1.80;;;18.50;69.80;;;;;;5048130;28;43469;-73
2022/11/06 03:25:52;;;;;;;1.63;1.60;;;18.50;69.80;;;;;;5047940;28;43591;-72
2022/11/06 03:28:23;;;;;;;1.73;1.73;;;18.50;70.00;;;;;;5047481;28;43600;-72
2022/11/06 03:30:55;;;;;;;1.70;1.70;;;18.40;70.00;;;;;;5029797;28;45030;-72
2022/11/06 03:33:24;;;;;;;1.63;1.63;;;18.40;69.90;;;;;;5047699;28;43374;-72
2022/11/06 03:35:54;;;;;;;1.77;1.77;;;18.40;70.00;;;;;;5029420;28;43467;-73
2022/11/06 03:38:23;;;;;;;1.80;1.80;;;18.40;70.20;;;;;;5047540;28;44020;-72
2022/11/06 03:40:52;;;;;;;1.90;1.80;;;18.40;70.30;;;;;;5047825;28;43828;-73
2022/11/06 03:43:22;;;;;;;1.67;1.67;;;18.30;70.30;;;;;;5029417;28;43416;-72
2022/11/06 03:45:50;;;;;;;1.70;1.70;;;18.30;70.30;;;;;;5029511;28;43552;-72
2022/11/06 03:48:21;;;;;;;1.83;1.73;;;18.40;70.40;;;;;;5045419;28;43856;-72
2022/11/06 03:50:51;;;;;;;1.60;1.60;;;18.30;70.40;;;;;;5044272;28;43441;-72
2022/11/06 03:53:22;;;;;;;1.50;1.50;;;18.30;70.40;;;;;;5044989;28;43492;-72
2022/11/06 03:55:57;;;;;;;1.47;1.47;;;18.30;70.50;;;;;;5045405;28;43996;-72
2022/11/06 03:58:25;;;;;;;1.70;1.70;;;18.30;70.60;;;;;;5043830;28;43825;-71
2022/11/06 04:00:54;;;;;;;1.60;1.60;;;18.30;70.60;;;;;;5041659;28;43649;-73
2022/11/06 04:03:25;;;;;;;1.60;1.60;;;18.30;70.20;;;;;;5044066;28;43992;-73
2022/11/06 04:05:54;;;;;;;1.70;1.70;;;18.40;69.90;;;;;;5041894;28;44011;-72
2022/11/06 04:13:57;;;;;;;1.50;1.50;;;18.60;69.10;;;;;;5025238;28;43992;-72
2022/11/06 04:16:25;;;;;;;1.60;1.60;;;18.60;69.50;;;;;;5026569;28;43527;-73
2022/11/06 04:18:54;;;;;;;1.67;1.67;;;18.50;69.60;;;;;;5045246;28;43833;-73
2022/11/06 04:21:26;;;;;;;1.83;1.83;;;18.40;69.80;;;;;;5040751;28;43515;-72
2022/11/06 04:27:11;;;;;;;1.70;1.70;;;18.40;70.00;;;;;;5037487;28;43523;-73
2022/11/06 04:29:55;;;;;;;1.50;1.50;;;18.30;70.10;;;;;;5025044;28;46274;-72
2022/11/06 04:32:27;;;;;;;1.50;1.50;;;18.30;70.20;;;;;;5042277;28;43510;-73
2022/11/06 04:35:00;;;;;;;1.43;1.43;;;18.30;70.40;;;;;;5041797;28;43472;-73
2022/11/06 04:37:31;;;;;;;1.63;1.63;;;18.30;70.50;;;;;;5043438;28;43965;-72
2022/11/06 04:40:02;;;;;;;1.57;1.57;;;18.20;70.30;;;;;;5044068;28;43889;-71
2022/11/06 04:42:33;;;;;;;1.50;1.50;;;18.30;70.10;;;;;;5025480;28;44735;-73
2022/11/06 04:45:02;;;;;;;1.57;1.57;;;18.40;69.70;;;;;;5042525;28;44016;-72
2022/11/06 04:47:30;;;;;;;1.50;1.50;;;18.40;69.50;;;;;;5043737;28;43934;-73
2022/11/06 04:50:00;;;;;;;1.60;1.60;;;18.40;69.70;;;;;;5041583;28;43846;-72
2022/11/06 04:52:28;;;;;;;1.70;1.60;;;18.40;69.80;;;;;;5024950;28;44711;-73
2022/11/06 04:54:57;;;;;;;1.43;1.43;;;18.40;69.70;;;;;;5042640;28;43941;-73
2022/11/06 04:57:25;;;;;;;1.40;1.40;;;18.40;69.70;;;;;;5042242;28;43969;-72
2022/11/06 04:59:55;;;;;;;1.37;1.37;;;18.40;69.90;;;;;;5044469;28;43913;-73
2022/11/06 05:02:23;;;;;;;1.40;1.40;;;18.40;70.00;;;;;;5042923;28;43468;-73
2022/11/06 05:04:51;;;;;;;1.57;1.57;;;18.30;70.00;;;;;;5042779;28;43460;-73
2022/11/06 05:07:20;;;;;;;1.50;1.50;;;18.30;70.00;;;;;;5026118;28;45202;-73
2022/11/06 05:09:48;;;;;;;1.47;1.47;;;18.30;69.90;;;;;;5042965;28;43891;-72
2022/11/06 05:12:16;;;;;;;1.50;1.50;;;18.30;70.00;;;;;;5039482;28;43463;-72
2022/11/06 05:14:44;;;;;;;1.50;1.50;;;18.30;70.10;;;;;;5043748;28;43551;-72
2022/11/06 05:17:12;;;;;;;1.50;1.50;;;18.30;70.10;;;;;;5043031;28;43483;-73
2022/11/06 05:19:40;;;;;;;1.57;1.57;;;18.30;70.10;;;;;;5044014;28;43592;-73
2022/11/06 05:24:55;;;;;;;1.87;1.87;;;18.30;69.90;;;;;;5042529;28;43463;-73
2022/11/06 05:27:23;;;;;;;1.37;1.37;;;18.40;69.60;;;;;;5043303;28;43558;-73
2022/11/06 05:29:51;;;;;;;1.50;1.50;;;18.50;69.30;;;;;;5043436;28;44070;-73
2022/11/06 05:32:19;;;;;;;1.60;1.50;;;18.50;69.00;;;;;;5041164;28;43427;-72
2022/11/06 05:34:47;;;;;;;1.63;1.57;;;18.50;69.20;;;;;;5043039;28;43419;-72
2022/11/06 05:37:15;;;;;;;1.40;1.40;;;18.50;69.10;;;;;;5041031;28;43615;-72
2022/11/06 05:39:43;;;;;;;1.23;1.23;;;18.50;69.10;;;;;;5023181;28;45839;-73
2022/11/06 05:42:12;;;;;;;1.40;1.40;;;18.50;69.30;;;;;;5043787;28;43572;-72
2022/11/06 05:44:40;;;;;;;1.40;1.40;;;18.50;69.60;;;;;;5042013;28;43537;-74
2022/11/06 05:47:08;;;;;;;1.20;1.20;;;18.40;69.60;;;;;;5042901;28;44041;-72
2022/11/06 05:49:36;;;;;;;1.50;1.50;;;18.40;69.70;;;;;;5042717;28;43603;-72
2022/11/06 05:52:04;;;;;;;1.20;1.20;;;18.30;69.60;;;;;;5041303;28;44092;-73
2022/11/06 05:54:32;;;;;;;1.40;1.40;;;18.30;69.70;;;;;;5022972;28;43602;-73
2022/11/06 05:57:00;;;;;;;1.20;1.20;;;18.30;69.80;;;;;;5042110;28;43446;-73
2022/11/06 05:59:29;;;;;;;1.17;1.17;;;18.30;69.90;;;;;;5042813;28;43608;-72
2022/11/06 06:01:58;;;;;;;1.17;1.17;;;18.30;70.00;;;;;;5042757;28;43494;-72
2022/11/06 06:04:26;;;;;;;1.30;1.30;;;18.20;70.70;;;;;;5040701;28;43441;-73
2022/11/06 06:06:54;;;;;;;1.33;1.33;;;18.30;70.00;;;;;;5041732;28;43479;-72
2022/11/06 06:09:22;;;;;;;1.40;1.40;;;18.30;69.70;;;;;;5040539;28;43765;-72
2022/11/06 06:11:51;;;;;;;7.90;2.47;;;18.40;69.30;;;;;;5022611;28;45093;-73
2022/11/06 06:14:18;;;;;;;6.37;1.63;;;18.50;69.10;;;;;;5022180;28;43662;-73
2022/11/06 06:16:48;;;;;;;3.33;1.50;;;18.50;69.20;;;;;;5041791;28;43498;-72
2022/11/06 06:19:16;;;;;;;6.40;1.57;;;18.40;69.30;;;;;;5039937;28;43672;-73
2022/11/06 06:21:43;;;;;;;4.23;1.30;;;18.40;69.10;;;;;;5041330;28;43439;-72
2022/11/06 06:24:11;;;;;;;1.40;1.30;;;18.40;69.20;;;;;;5018168;28;43428;-72
2022/11/06 06:26:40;;;;;;;4.03;1.20;;;18.40;69.50;;;;;;5043029;28;43607;-72
2022/11/06 06:29:08;;;;;;;1.37;1.37;;;18.40;69.50;;;;;;5042400;28;43953;-72
2022/11/06 06:31:35;;;;;;;3.13;1.30;;;18.30;69.50;;;;;;5025805;28;43693;-72
2022/11/06 06:34:05;;;;;;;1.30;1.30;;;18.30;69.50;;;;;;5043786;28;43479;-72
2022/11/06 06:36:33;;;;;;;2.23;1.33;;;18.30;69.40;;;;;;5041995;28;43494;-73
2022/11/06 06:39:01;;;;;;;1.30;1.20;;;18.30;69.70;;;;;;5045103;28;43600;-73
2022/11/06 06:41:29;;;;;;;1.33;1.30;;;18.30;69.80;;;;;;5029746;28;44999;-72
2022/11/06 06:43:56;;;;;;;1.30;1.20;;;18.30;69.80;;;;;;5045489;28;43467;-73
2022/11/06 06:46:24;;;;;;;1.40;1.40;;;18.20;69.80;;;;;;5044969;28;44055;-73
2022/11/06 06:48:52;;;;;;;1.20;1.20;;;18.30;70.00;;;;;;5028417;28;43869;-73
2022/11/06 06:51:22;;;;;;;1.40;1.40;;;18.20;70.00;;;;;;5044160;28;44204;-73
2022/11/06 06:53:51;;;;;;;1.37;1.20;;;18.20;70.00;;;;;;5044497;28;43381;-73
2022/11/06 06:56:19;;;;;;;1.20;1.20;;;18.20;70.00;;;;;;5046987;28;43504;-73
2022/11/06 06:58:47;;;;;;;1.30;1.30;;;18.20;70.10;;;;;;5045663;28;43744;-74
2022/11/06 07:01:15;;;;;;;1.73;1.73;;;18.20;70.20;;;;;;5046061;28;43530;-73
2022/11/06 07:03:43;;;;;;;1.33;1.33;;;18.20;70.30;;;;;;5026840;28;44783;-72
2022/11/06 07:06:11;;;;;;;1.50;1.50;;;18.20;70.10;;;;;;5023791;28;43505;-73
2022/11/06 07:08:40;;;;;;;1.30;1.30;;;18.30;69.60;;;;;;5025642;28;45533;-73
2022/11/06 07:11:09;;;;;;;2.00;1.33;;;18.50;69.10;;;;;;5044952;28;43610;-72
2022/11/06 07:13:37;;;;;;;1.40;1.40;;;18.60;68.50;;;;;;5045237;28;44096;-73
2022/11/06 07:16:05;;;;;;;1.50;1.50;;;18.80;67.90;;;;;;5045226;28;43488;-72
2022/11/06 07:18:33;;;;;;;1.40;1.40;;;19.00;67.30;;;;;;5044388;28;43998;-72
2022/11/06 07:21:04;;;;;;;1.27;1.27;;;19.20;66.60;;;;;;5028319;28;44275;-73
2022/11/06 07:23:32;;;;;;;1.30;1.30;;;19.30;66.10;;;;;;5045540;28;43442;-73
2022/11/06 07:26:01;;;;;;;1.30;1.30;;;19.50;65.80;;;;;;5046016;28;43523;-73
2022/11/06 07:28:30;;;;;;;1.23;1.23;;;19.50;65.40;;;;;;5043378;28;43843;-73
2022/11/06 07:30:59;;;;;;;1.30;1.30;;;19.60;65.20;;;;;;5026716;28;44677;-72
2022/11/06 07:33:27;;;;;;;1.20;1.20;;;19.50;65.00;;;;;;5046029;28;43463;-72
2022/11/06 07:35:55;;;;;;;1.50;1.50;;;19.50;65.20;;;;;;5044953;28;43531;-72
2022/11/06 07:38:23;;;;;;;1.80;1.30;;;19.30;65.50;;;;;;5047200;28;43835;-72
2022/11/06 07:40:51;;;;;;;1.33;1.33;;;19.20;66.30;;;;;;5029573;28;44877;-72
2022/11/06 07:43:20;;;;;;;1.23;1.23;;;19.10;66.60;;;;;;5047879;28;43428;-72
2022/11/06 07:45:48;;;;;;;1.27;1.27;;;19.00;66.80;;;;;;5046387;28;43552;-72
2022/11/06 07:48:16;;;;;;;1.30;1.30;;;18.90;67.00;;;;;;5043063;28;43844;-72
2022/11/06 07:50:44;;;;;;;1.50;1.43;;;18.80;67.60;;;;;;5044828;28;43460;-72
2022/11/06 07:53:12;;;;;;;1.30;1.30;;;18.70;68.00;;;;;;5024304;28;43491;-72
2022/11/06 07:55:40;;;;;;;1.40;1.40;;;18.60;68.10;;;;;;5044720;28;43487;-73
2022/11/06 07:58:09;;;;;;;1.30;1.30;;;18.60;68.20;;;;;;5043745;28;43810;-73
2022/11/06 08:00:39;;;;;;;1.30;1.30;;;18.60;68.20;;;;;;5045537;28;43473;-72
2022/11/06 08:03:07;;;;;;;1.47;1.47;;;18.70;67.90;;;;;;5046964;28;43506;-73
2022/11/06 08:05:35;;;;;;;1.20;1.20;;;18.80;67.60;;;;;;5053199;28;43451;-74
2022/11/06 08:08:03;;;;;;;1.20;1.20;;;18.80;67.20;;;;;;5050432;28;43840;-73
2022/11/06 08:10:32;;;;;;;1.20;1.20;;;18.80;67.20;;;;;;5044499;28;43589;-72
2022/11/06 08:13:00;;;;;;;1.27;1.27;;;18.70;67.60;;;;;;5042163;28;43440;-73
2022/11/06 08:15:28;;;;;;;1.30;1.30;;;18.70;68.00;;;;;;5047956;28;43437;-72
2022/11/06 08:17:58;;;;;;;1.20;1.20;;;18.60;68.20;;;;;;5045423;28;43847;-73
2022/11/06 08:20:26;;;;;;;1.50;1.23;;;18.50;68.30;;;;;;5046483;28;44122;-72
2022/11/06 08:22:58;;;;;;;1.37;1.37;;;18.50;68.40;;;;;;5041293;28;43390;-72
2022/11/06 08:25:27;;;;;;;1.37;1.37;;;18.50;68.70;;;;;;5046973;28;43562;-72
2022/11/06 08:27:55;;;;;;;1.00;1.00;;;18.40;68.80;;;;;;5046836;28;43879;-73
2022/11/06 08:30:23;;;;;;;1.30;1.30;;;18.40;69.00;;;;;;5047175;28;43899;-73
2022/11/06 08:32:51;;;;;;;1.23;1.20;;;18.40;69.20;;;;;;5028434;28;43439;-73
2022/11/06 08:35:20;;;;;;;1.40;1.40;;;18.30;69.10;;;;;;5047695;28;43457;-73
2022/11/06 08:37:48;;;;;;;1.60;1.50;;;18.30;69.10;;;;;;5047325;28;43851;-75
2022/11/06 08:40:16;;;;;;;1.30;1.30;;;18.30;69.10;;;;;;5046816;28;43419;-73
2022/11/06 08:42:44;;;;;;;1.67;1.67;;;18.30;69.00;;;;;;5047125;28;43462;-73
2022/11/06 08:45:12;;;;;;;2.00;1.90;;;18.30;67.50;;;;;;5047575;28;43483;-73
2022/11/06 08:47:40;;;;;;;3.17;2.40;;;18.30;66.60;;;;;;5028516;28;45810;-73
2022/11/06 08:50:08;;;;;;;4.83;2.70;;;18.30;59.30;;;;;;5045939;28;43515;-73
2022/11/06 08:52:37;;;;;;;2.33;2.13;;;18.30;56.10;;;;;;5046814;28;43412;-73
2022/11/06 08:55:06;;;;;;;2.23;1.93;;;18.50;56.30;;;;;;5028884;28;44084;-74
2022/11/06 08:57:34;;;;;;;2.40;1.73;;;18.60;59.80;;;;;;5047209;28;44007;-73
2022/11/06 09:00:02;;;;;;;2.40;2.20;;;18.70;61.60;;;;;;5046762;28;43503;-73
2022/11/06 09:02:30;;;;;;;2.07;2.00;;;18.80;62.50;;;;;;5047401;28;43459;-73
2022/11/06 09:04:58;;;;;;;1.90;1.80;;;18.80;62.90;;;;;;5047019;28;43479;-72
2022/11/06 09:07:26;;;;;;;3.23;2.07;;;18.70;62.60;;;;;;5046241;28;43599;-72
2022/11/06 09:09:56;;;;;;;1.70;1.70;;;18.70;62.80;;;;;;5047032;28;43949;-71
2022/11/06 09:12:24;;;;;;;1.90;1.80;;;18.60;63.00;;;;;;5028671;28;43453;-74
2022/11/06 09:14:51;;;;;;;2.13;2.03;;;18.60;63.70;;;;;;5028901;28;43471;-72
2022/11/06 09:17:22;;;;;;;1.90;1.80;;;18.60;63.90;;;;;;5027983;28;45263;-73
2022/11/06 09:19:50;;;;;;;2.00;1.90;;;18.60;64.20;;;;;;5046396;28;43897;-73
2022/11/06 09:22:18;;;;;;;1.93;1.70;;;18.50;64.30;;;;;;5046224;28;43459;-72
2022/11/06 09:24:46;;;;;;;2.07;1.90;;;18.50;64.60;;;;;;5046673;28;43458;-72
2022/11/06 09:27:32;;;;;;;1.80;1.80;;;18.50;64.90;;;;;;5044261;28;44167;-74
2022/11/06 09:30:00;;;;;;;2.07;1.77;;;18.40;65.30;;;;;;5043678;28;43447;-73
2022/11/06 09:32:28;;;;;;;1.70;1.70;;;18.40;65.40;;;;;;5045489;28;44004;-72
2022/11/06 09:34:56;;;;;;;2.03;1.90;;;18.40;65.60;;;;;;5046492;28;43452;-74
2022/11/06 09:37:24;;;;;;;1.57;1.57;;;18.40;65.80;;;;;;5045540;28;44204;-73
2022/11/06 09:39:52;;;;;;;1.70;1.70;;;18.40;66.00;;;;;;5027496;28;44603;-73
2022/11/06 09:42:24;;;;;;;2.87;1.90;;;18.30;66.20;;;;;;5028041;28;43384;-73
2022/11/06 09:44:59;;;;;;;1.90;1.80;;;18.30;66.20;;;;;;5028288;28;43415;-73
2022/11/06 09:47:30;;;;;;;2.30;2.10;;;18.40;66.20;;;;;;5046101;28;43913;-71
2022/11/06 09:49:57;;;;;;;1.80;1.70;;;18.50;65.90;;;;;;5046010;28;43467;-73
2022/11/06 09:52:30;;;;;;;1.73;1.73;;;18.60;65.60;;;;;;5046490;28;43474;-72
2022/11/06 09:54:59;;;;;;;2.10;2.00;;;18.70;65.40;;;;;;5023724;28;43457;-72
2022/11/06 09:57:33;;;;;;;1.77;1.77;;;18.70;65.50;;;;;;5045291;28;43866;-72
2022/11/06 10:00:04;;;;;;;2.00;1.60;;;18.60;65.70;;;;;;5046238;28;43905;-73
2022/11/06 10:02:35;;;;;;;1.70;1.60;;;18.60;66.00;;;;;;5046295;28;43918;-72
2022/11/06 10:05:08;;;;;;;1.70;1.70;;;18.50;66.30;;;;;;5046460;28;43411;-72
2022/11/06 10:07:36;;;;;;;1.67;1.67;;;18.40;66.70;;;;;;5046031;28;43806;-73
2022/11/06 10:10:05;;;;;;;1.50;1.50;;;18.40;66.70;;;;;;5046304;28;43999;-72
2022/11/06 10:12:39;;;;;;;1.87;1.77;;;18.40;66.80;;;;;;5048585;28;43459;-72
2022/11/06 10:15:18;;;;;;;1.60;1.60;;;18.40;67.00;;;;;;5050185;28;43404;-73
2022/11/06 10:17:52;;;;;;;2.10;1.70;;;18.30;67.10;;;;;;5049430;28;43988;-73
2022/11/06 10:20:21;;;;;;;1.73;1.63;;;18.30;67.20;;;;;;5049260;28;43459;-73
2022/11/06 10:23:02;;;;;;;1.77;1.63;;;18.30;67.30;;;;;;5046299;28;43464;-73
2022/11/06 10:25:46;;;;;;;1.50;1.50;;;18.30;67.30;;;;;;5047387;28;43537;-73
2022/11/06 10:28:28;;;;;;;1.63;1.60;;;18.30;67.40;;;;;;5047481;28;43901;-72
2022/11/06 10:31:01;;;;;;;1.70;1.70;;;18.30;68.20;;;;;;5028708;28;45038;-71
2022/11/06 10:33:35;;;;;;;2.23;1.90;;;18.30;67.60;;;;;;5053429;28;43703;-72
2022/11/06 10:36:04;;;;;;;2.10;1.90;;;18.30;68.00;;;;;;5051149;28;43936;-73
2022/11/06 10:38:34;;;;;;;1.77;1.70;;;18.30;68.00;;;;;;5033985;28;45563;-72
2022/11/06 10:41:02;;;;;;;1.67;1.67;;;18.40;67.80;;;;;;5030218;28;44639;-74
2022/11/06 10:43:31;;;;;;;3.03;1.90;;;18.50;67.50;;;;;;5049902;28;43916;-73
2022/11/06 10:46:06;;;;;;;1.80;1.60;;;18.60;67.10;;;;;;5030838;28;43575;-73
2022/11/06 10:48:37;;;;;;;1.97;1.57;;;18.60;66.90;;;;;;5047451;28;43835;-73
2022/11/06 10:51:23;;;;;;;1.43;1.43;;;18.60;66.90;;;;;;5045211;28;43508;-74
2022/11/06 10:53:56;;;;;;;1.43;1.43;;;18.50;67.00;;;;;;5026304;28;44816;-73
2022/11/06 10:56:33;;;;;;;1.60;1.60;;;18.50;67.20;;;;;;5047694;28;44014;-72
2022/11/06 10:59:01;;;;;;;1.90;1.80;;;18.40;67.40;;;;;;5030792;28;45278;-73
2022/11/06 11:01:30;;;;;;;1.53;1.53;;;18.40;67.80;;;;;;5048025;28;43507;-72
2022/11/06 11:03:59;;;;;;;1.50;1.50;;;18.40;67.80;;;;;;5044944;28;43485;-73
2022/11/06 11:06:27;;;;;;;1.43;1.43;;;18.30;67.90;;;;;;5052968;28;43771;-73
2022/11/06 11:08:55;;;;;;;1.47;1.47;;;18.30;67.90;;;;;;5048856;28;43592;-74
2022/11/06 11:11:23;;;;;;;1.90;1.80;;;18.30;68.00;;;;;;5050313;28;43404;-73
2022/11/06 11:14:07;;;;;;;1.70;1.60;;;18.30;68.20;;;;;;5030882;28;44147;-73
2022/11/06 11:16:38;;;;;;;2.60;1.60;;;18.30;68.20;;;;;;5031738;28;43535;-72
2022/11/06 11:19:16;;;;;;;1.40;1.40;;;18.30;68.20;;;;;;5030164;28;45758;-72
2022/11/06 11:21:52;;;;;;;1.60;1.60;;;18.30;68.20;;;;;;5034150;28;45138;-73
2022/11/06 11:24:20;;;;;;;3.73;1.67;;;18.20;68.20;;;;;;5048008;28;43400;-72
2022/11/06 11:26:49;;;;;;;1.60;1.60;;;18.20;68.30;;;;;;5046984;28;43466;-72
2022/11/06 11:29:19;;;;;;;1.90;1.77;;;18.20;68.50;;;;;;5042749;28;43594;-72
2022/11/06 11:31:51;;;;;;;1.50;1.50;;;18.20;68.30;;;;;;5050277;28;43473;-73
2022/11/06 11:34:20;;;;;;;1.60;1.50;;;18.20;68.40;;;;;;5050097;28;43447;-73
2022/11/06 11:36:50;;;;;;;1.37;1.37;;;18.20;68.40;;;;;;5046532;28;43591;-73
2022/11/06 11:39:18;;;;;;;1.30;1.30;;;18.20;68.40;;;;;;5032894;28;45952;-73
2022/11/06 11:41:46;;;;;;;1.63;1.60;;;18.20;68.70;;;;;;5029102;28;44590;-72
2022/11/06 11:44:15;;;;;;;1.70;1.60;;;18.20;69.00;;;;;;5047890;28;43494;-74
2022/11/06 11:46:46;;;;;;;2.13;1.60;;;18.30;68.70;;;;;;5026534;28;43726;-72
2022/11/06 11:49:28;;;;;;;1.70;1.63;;;18.40;68.20;;;;;;5044134;28;44054;-73
2022/11/06 11:51:56;;;;;;;1.67;1.67;;;18.50;67.70;;;;;;5046244;28;43789;-72
2022/11/06 11:54:25;;;;;;;1.83;1.80;;;18.60;67.40;;;;;;5047610;28;43483;-74
2022/11/06 11:56:54;;;;;;;3.80;1.50;;;18.60;67.10;;;;;;5026479;28;43576;-71
2022/11/06 11:59:34;;;;;;;1.67;1.43;;;18.60;67.40;;;;;;5028601;28;45710;-72
2022/11/06 12:02:04;;;;;;;1.23;1.23;;;18.50;67.50;;;;;;5049642;28;43510;-72
2022/11/06 12:04:36;;;;;;;1.60;1.50;;;18.40;67.70;;;;;;5045716;28;43439;-73
2022/11/06 12:07:05;;;;;;;1.40;1.40;;;18.40;68.00;;;;;;5046657;28;43425;-73
2022/11/06 12:09:33;;;;;;;1.50;1.50;;;18.30;68.10;;;;;;5030435;28;45693;-72
2022/11/06 12:12:02;;;;;;;1.43;1.40;;;18.30;68.10;;;;;;5047882;28;43370;-72
2022/11/06 12:14:32;;;;;;;1.80;1.70;;;18.30;68.20;;;;;;5047397;28;43751;-71
2022/11/06 12:17:04;;;;;;;1.63;1.63;;;18.30;68.40;;;;;;5027158;28;43553;-73
2022/11/06 12:19:34;;;;;;;1.77;1.70;;;18.30;68.40;;;;;;5028439;28;44879;-72
2022/11/06 12:22:05;;;;;;;1.50;1.50;;;18.20;68.70;;;;;;5046287;28;43535;-73
2022/11/06 12:24:37;;;;;;;1.60;1.60;;;18.20;68.50;;;;;;5046537;28;43438;-72
2022/11/06 12:27:09;;;;;;;1.47;1.47;;;18.20;68.70;;;;;;5041103;28;43823;-73
2022/11/06 12:29:39;;;;;;;1.50;1.50;;;18.20;68.60;;;;;;5028318;28;45771;-72
2022/11/06 12:32:08;;;;;;;1.60;1.50;;;18.20;68.60;;;;;;5023951;28;44094;-72
2022/11/06 12:34:39;;;;;;;1.50;1.50;;;18.20;68.70;;;;;;5041995;28;43516;-72
2022/11/06 12:37:16;;;;;;;1.63;1.63;;;18.20;69.30;;;;;;5049507;28;43471;-73
2022/11/06 12:39:46;;;;;;;1.90;1.70;;;18.20;69.10;;;;;;5043179;28;43873;-72
2022/11/06 12:42:14;;;;;;;1.60;1.50;;;18.30;68.80;;;;;;5047480;28;43473;-73
2022/11/06 12:44:42;;;;;;;1.60;1.43;;;18.50;68.40;;;;;;5045737;28;43547;-72
2022/11/06 12:47:14;;;;;;;2.60;1.77;;;18.60;68.10;;;;;;5028132;28;43643;-72
2022/11/06 12:49:59;;;;;;;1.77;1.67;;;18.60;67.70;;;;;;5048298;28;43599;-72
2022/11/06 12:52:38;;;;;;;1.70;1.60;;;18.60;68.10;;;;;;5026699;28;44272;-72
2022/11/06 12:55:18;;;;;;;1.63;1.53;;;18.50;68.30;;;;;;5044504;28;43937;-75
2022/11/06 12:57:57;;;;;;;1.60;1.60;;;18.40;68.60;;;;;;5040520;28;43519;-74
2022/11/06 13:00:25;;;;;;;1.90;1.70;;;18.40;68.90;;;;;;5050025;28;43859;-75
2022/11/06 13:03:13;;;;;;;1.80;1.70;;;18.30;69.20;;;;;;5044845;28;43453;-74
2022/11/06 13:05:45;;;;;;;1.50;1.40;;;18.30;69.50;;;;;;5025322;28;43464;-73
2022/11/06 13:08:18;;;;;;;1.97;1.80;;;18.30;69.40;;;;;;5045623;28;44139;-73
2022/11/06 13:10:56;;;;;;;1.73;1.63;;;18.30;69.50;;;;;;5043864;28;44009;-74
2022/11/06 13:13:45;;;;;;;1.50;1.50;;;18.30;69.70;;;;;;5023803;28;44867;-74
2022/11/06 13:16:19;;;;;;;1.50;1.50;;;18.20;69.90;;;;;;5026987;28;43470;-74